Alana — UBJG9 — position and weather

sailwx.info

Track history (hours):
 
Tides and Currents Weather Stations Pressure Air Temp Water Temp Dewpoint Dewpoint Depression Visibility Wind Speed Wind Dir Waves Ship Positions

Alana

Last reported at 2018-Jan-08 03:57 UTC. Time now 2018-Jan-21 16:25 UTC.
Position N 63°29' E 007°29'.
Warning: this ship's position is 13 days out of date.

; draft 5.7 m.

Type: Tanker. MMSI: 273354700.

Date/timePositionNaut miles runAvg speedWind from/ knotsBaromVisibWave heightAir tempDewpointWater temp
2018-Jan-08 03:57N 63°29' E 007°29'3 5.8
2018-Jan-08 03:28N 63°26' E 007°29'3 6.2
2018-Jan-08 03:00N 63°23' E 007°30'3 5.8
2018-Jan-08 02:30N 63°20' E 007°30'2 5.0
2018-Jan-08 02:01N 63°18' E 007°32'2 4.3
2018-Jan-08 01:30N 63°16' E 007°34'2 4.1
2018-Jan-08 01:00N 63°15' E 007°38'2 4.6
2018-Jan-08 00:30N 63°14' E 007°42'2 4.9
2018-Jan-08 00:00N 63°12' E 007°45'4 7.0
2018-Jan-07 23:30N 63°09' E 007°42'4 7.4
2018-Jan-07 23:00N 63°05' E 007°41'4 7.4
2018-Jan-07 22:30N 63°01' E 007°42'2 4.4
2018-Jan-07 22:01N 63°01' E 007°47'0 0.0
2018-Jan-07 21:31N 63°01' E 007°47'0 0.1
2018-Jan-07 21:00N 63°01' E 007°47'0 0.0
2018-Jan-07 20:30N 63°01' E 007°47'0 0.0
2018-Jan-07 20:00N 63°01' E 007°47'0 0.0
2018-Jan-07 19:30N 63°01' E 007°47'0 0.0
2018-Jan-07 19:00N 63°01' E 007°47'0 0.0
2018-Jan-07 18:30N 63°01' E 007°47'0 0.0
2018-Jan-07 18:00N 63°01' E 007°47'0 0.0
2018-Jan-07 17:30N 63°01' E 007°47'0 0.1
2018-Jan-07 17:01N 63°01' E 007°47'0 0.0
2018-Jan-07 16:30N 63°01' E 007°47'0 0.0
2018-Jan-07 16:00N 63°01' E 007°47'0 0.1
2018-Jan-07 15:30N 63°01' E 007°47'0 0.0
2018-Jan-07 15:00N 63°01' E 007°47'0 0.0
2018-Jan-07 14:30N 63°01' E 007°47'0 0.1
2018-Jan-07 14:00N 63°01' E 007°47'0 0.1
2018-Jan-07 13:30N 63°01' E 007°47'0 0.1
2018-Jan-07 13:00N 63°01' E 007°47'0 0.0
2018-Jan-07 12:30N 63°01' E 007°47'0 0.0
2018-Jan-07 12:00N 63°01' E 007°47'0 0.0
2018-Jan-07 11:30N 63°01' E 007°47'0 0.0
2018-Jan-07 11:01N 63°01' E 007°47'0 0.0
2018-Jan-07 10:30N 63°01' E 007°47'0 0.1
2018-Jan-07 10:00N 63°01' E 007°47'0 0.2
2018-Jan-07 09:30N 63°01' E 007°47'2 3.3
2018-Jan-07 09:00N 63°01' E 007°50'3 6.5
2018-Jan-07 08:30N 63°04' E 007°55'4 7.3
2018-Jan-07 08:01N 63°07' E 007°54'4 7.6
2018-Jan-07 07:30N 63°10' E 007°47'2 4.3
2018-Jan-07 07:00N 63°12' E 007°46'3 5.7
2018-Jan-07 06:31N 63°14' E 007°42'3 5.2
2018-Jan-07 06:00N 63°16' E 007°37'2 3.7
2018-Jan-07 05:30N 63°17' E 007°34'2 3.4
2018-Jan-07 05:01N 63°18' E 007°31'2 3.4
2018-Jan-07 04:25N 63°19' E 007°28'2 4.5
2018-Jan-07 03:59N 63°21' E 007°25'  
2018-Jan-04 02:05N 58°57' E 004°52'210.1
2018-Jan-04 01:54N 58°55' E 004°54'410.2
2018-Jan-04 01:29N 58°52' E 004°57'510.0
2018-Jan-04 00:59N 58°47' E 005°02'5 9.7
2018-Jan-04 00:30N 58°43' E 005°07'5 9.7
2018-Jan-03 23:59N 58°39' E 005°12'5 9.9
2018-Jan-03 23:30N 58°35' E 005°17'610.4
2018-Jan-03 22:57N 58°30' E 005°23'810.6
2018-Jan-03 22:13N 58°23' E 005°31'311.0
2018-Jan-03 21:59N 58°21' E 005°33'2210.1
2018-Jan-03 19:46N 58°05' E 006°02'310.7
2018-Jan-03 19:29N 58°03' E 006°06'510.9
2018-Jan-03 18:59N 57°59' E 006°14'510.5
2018-Jan-03 18:29N 57°56' E 006°21'5 9.9
2018-Jan-03 18:00N 57°54' E 006°29'510.0
2018-Jan-03 17:30N 57°52' E 006°38'5 9.3
2018-Jan-03 16:59N 57°51' E 006°47'4 8.8
2018-Jan-03 16:30N 57°49' E 006°54'4 8.3
2018-Jan-03 16:00N 57°48' E 007°02'105 9.4
2018-Jan-03 04:53N 57°49' E 010°19'410.8
2018-Jan-03 04:30N 57°49' E 010°27'5 9.6
2018-Jan-03 03:59N 57°49' E 010°36'4 9.0
2018-Jan-03 03:30N 57°49' E 010°44'510.3
2018-Jan-03 03:00N 57°46' E 010°52'510.5
2018-Jan-03 02:30N 57°42' E 010°59'511.1
2018-Jan-03 02:00N 57°38' E 011°06'611.4
2018-Jan-03 01:31N 57°34' E 011°14'611.4
2018-Jan-03 01:01N 57°30' E 011°22'611.3
2018-Jan-03 00:30N 57°26' E 011°28'611.9
2018-Jan-03 00:00N 57°20' E 011°31'611.7
2018-Jan-02 23:30N 57°15' E 011°35'611.9
2018-Jan-02 23:00N 57°09' E 011°39'5910.9
2018-Jan-02 17:35N 56°14' E 012°16'110.4
2018-Jan-02 17:30N 56°13' E 012°18'510.6
2018-Jan-02 17:00N 56°10' E 012°25'610.9
2018-Jan-02 16:30N 56°07' E 012°33'611.6
2018-Jan-02 16:01N 56°03' E 012°40'510.9
2018-Jan-02 15:30N 55°58' E 012°43'510.4
2018-Jan-02 15:00N 55°52' E 012°44'510.8
2018-Jan-02 14:30N 55°47' E 012°42'510.9
2018-Jan-02 14:00N 55°42' E 012°41'510.9
2018-Jan-02 13:30N 55°36' E 012°42'510.9
2018-Jan-02 13:00N 55°31' E 012°43'510.9
2018-Jan-02 12:30N 55°25' E 012°42'510.8
2018-Jan-02 12:00N 55°20' E 012°41'5 9.6
2018-Jan-02 11:30N 55°17' E 012°48'5 9.7
2018-Jan-02 11:00N 55°16' E 012°56'510.1
2018-Jan-02 10:30N 55°16' E 013°05'510.1
2018-Jan-02 09:59N 55°15' E 013°14'2310.3
2018-Jan-02 07:44N 55°14' E 013°55'410.6
2018-Jan-02 07:24N 55°14' E 014°01'1010.0
2018-Jan-02 06:27N 55°15' E 014°18'510.4
2018-Jan-02 06:00N 55°19' E 014°23'510.4
2018-Jan-02 05:29N 55°23' E 014°29'23 9.7
2018-Jan-02 03:09N 55°35' E 015°02'9 9.7
2018-Jan-02 02:15N 55°40' E 015°16'2 9.6
2018-Jan-02 02:00N 55°41' E 015°19'5 9.6
2018-Jan-02 01:31N 55°43' E 015°27'5 9.1
2018-Jan-02 01:01N 55°46' E 015°34'4 8.5
2018-Jan-02 00:30N 55°48' E 015°40'4 8.0
2018-Jan-02 00:01N 55°50' E 015°46'4 7.3
2018-Jan-01 23:31N 55°52' E 015°52'3 6.3
2018-Jan-01 23:01N 55°53' E 015°57'3 5.7
2018-Jan-01 22:31N 55°55' E 016°01'2 4.8
2018-Jan-01 22:01N 55°56' E 016°05'2 4.5
2018-Jan-01 21:31N 55°57' E 016°08'2 4.6
2018-Jan-01 20:59N 55°58' E 016°12'2 4.3
2018-Jan-01 20:30N 55°59' E 016°15'2 4.3
2018-Jan-01 19:59N 56°00' E 016°18'2 3.7
2018-Jan-01 19:29N 56°01' E 016°21'2 3.4
2018-Jan-01 19:00N 56°02' E 016°24'2 3.6
2018-Jan-01 18:30N 56°03' E 016°27'2 4.0
2018-Jan-01 18:01N 56°04' E 016°30'2 3.6
2018-Jan-01 17:30N 56°05' E 016°32'308 8.8
2017-Dec-31 06:23N 59°39' E 023°29'410.0
2017-Dec-31 06:00N 59°40' E 023°36'1610.3
2017-Dec-31 04:24N 59°45' E 024°07'610.5
2017-Dec-31 03:52N 59°46' E 024°18'410.4
2017-Dec-31 03:30N 59°47' E 024°25'510.5
2017-Dec-31 03:00N 59°48' E 024°35'510.5
2017-Dec-31 02:30N 59°50' E 024°45'510.5
2017-Dec-31 02:00N 59°51' E 024°56'510.2
2017-Dec-31 01:30N 59°52' E 025°06'510.0
2017-Dec-31 01:00N 59°53' E 025°15'7 9.9
2017-Dec-31 00:18N 59°54' E 025°29'2210.0
2017-Dec-30 22:07N 59°59' E 026°12'110.0
2017-Dec-30 22:00N 59°59' E 026°14'510.1
2017-Dec-30 21:30N 60°00' E 026°24'510.0
2017-Dec-30 21:00N 60°01' E 026°34'510.0
2017-Dec-30 20:30N 60°01' E 026°43'510.2
2017-Dec-30 20:00N 60°00' E 026°53'510.0
2017-Dec-30 19:30N 59°60' E 027°03'5 9.8
2017-Dec-30 19:00N 60°02' E 027°12'5 9.8
2017-Dec-30 18:30N 60°05' E 027°20'510.1
2017-Dec-30 18:00N 60°07' E 027°29'5 9.8
2017-Dec-30 17:30N 60°10' E 027°37'5 9.8
2017-Dec-30 17:00N 60°12' E 027°46'5 9.8
2017-Dec-30 16:30N 60°11' E 027°56'510.0
2017-Dec-30 16:01N 60°10' E 028°06'510.2
2017-Dec-30 15:30N 60°08' E 028°15'510.3
2017-Dec-30 15:01N 60°05' E 028°24'510.4
2017-Dec-30 14:30N 60°03' E 028°33'510.2
2017-Dec-30 14:00N 60°03' E 028°43'510.3
2017-Dec-30 13:30N 60°03' E 028°54'510.4
2017-Dec-30 13:00N 60°02' E 029°04'2410.5
2017-Dec-30 10:42N 59°57' E 029°51'210.7
2017-Dec-30 10:29N 59°56' E 029°56'510.5
2017-Dec-30 10:00N 59°54' E 030°05'4 7.2
2017-Dec-30 09:30N 59°53' E 030°12'1 2.8
2017-Dec-30 09:00N 59°53' E 030°14'0 0.0
2017-Dec-30 08:30N 59°53' E 030°14'0 0.0
2017-Dec-30 08:00N 59°53' E 030°14'0 0.0
2017-Dec-30 07:30N 59°53' E 030°14'0 0.0
2017-Dec-30 07:00N 59°53' E 030°14'1 2.1
2017-Dec-30 06:30N 59°53' E 030°12'0 0.1
2017-Dec-30 06:01N 59°53' E 030°12'2 4.2
2017-Dec-30 05:30N 59°55' E 030°15'0 0.4
2017-Dec-30 05:00N 59°55' E 030°15'0 0.0
2017-Dec-30 04:30N 59°55' E 030°15'0 0.0
2017-Dec-30 04:00N 59°55' E 030°15'0 0.0
2017-Dec-30 03:30N 59°55' E 030°15'0 0.0
2017-Dec-30 03:00N 59°55' E 030°15'0 0.0
2017-Dec-30 02:29N 59°55' E 030°15'0 0.0
2017-Dec-30 02:00N 59°55' E 030°15'0 0.0
2017-Dec-30 01:30N 59°55' E 030°15'0 0.0
2017-Dec-30 01:01N 59°55' E 030°15'0 0.0
2017-Dec-30 00:30N 59°55' E 030°15'0 0.0
2017-Dec-30 00:00N 59°55' E 030°15'0 0.0
2017-Dec-29 23:30N 59°55' E 030°15'0 0.0
2017-Dec-29 22:59N 59°55' E 030°15'0 0.0
2017-Dec-29 22:30N 59°55' E 030°15'0 0.0
2017-Dec-29 22:00N 59°55' E 030°15'0 0.0
2017-Dec-29 21:30N 59°55' E 030°15'0 0.0
2017-Dec-29 21:00N 59°55' E 030°15'0 0.0
2017-Dec-29 20:30N 59°55' E 030°15'0 0.0
2017-Dec-29 19:59N 59°55' E 030°15'0 0.0
2017-Dec-29 19:30N 59°55' E 030°15'0 0.0
2017-Dec-29 19:00N 59°55' E 030°15'0 0.0
2017-Dec-29 18:30N 59°55' E 030°15'0 0.0
2017-Dec-29 18:00N 59°55' E 030°15'0 0.0
2017-Dec-29 17:30N 59°55' E 030°15'0 0.0
2017-Dec-29 17:00N 59°55' E 030°15'0 0.0
2017-Dec-29 16:30N 59°55' E 030°15'0 0.0
2017-Dec-29 16:00N 59°55' E 030°15'0 0.0
2017-Dec-29 15:31N 59°55' E 030°15'0 0.0
2017-Dec-29 15:00N 59°55' E 030°15'0 0.0
2017-Dec-29 14:30N 59°55' E 030°15'0 0.0
2017-Dec-29 14:00N 59°55' E 030°15'0 0.0
2017-Dec-29 13:31N 59°55' E 030°15'0 0.0
2017-Dec-29 13:00N 59°55' E 030°15'0 0.0
2017-Dec-29 12:30N 59°55' E 030°15'0 0.0
2017-Dec-29 12:00N 59°55' E 030°15'0 0.0
2017-Dec-29 11:30N 59°55' E 030°15'0 0.0
2017-Dec-29 11:01N 59°55' E 030°15'0 0.0
2017-Dec-29 10:30N 59°55' E 030°15'0 0.0
2017-Dec-29 10:00N 59°55' E 030°15'0 0.0
2017-Dec-29 09:30N 59°55' E 030°15'0 0.0
2017-Dec-29 09:00N 59°55' E 030°15'0 0.0
2017-Dec-29 08:29N 59°55' E 030°15'0 0.0
2017-Dec-29 08:00N 59°55' E 030°15'0 0.0
2017-Dec-29 07:30N 59°55' E 030°15'0 0.0
2017-Dec-29 07:00N 59°55' E 030°15'0 0.0
2017-Dec-29 06:30N 59°55' E 030°15'0 0.0
2017-Dec-29 06:00N 59°55' E 030°15'0 0.0
2017-Dec-29 05:30N 59°55' E 030°15'0 0.0
2017-Dec-29 05:00N 59°55' E 030°15'0 0.0
2017-Dec-29 04:30N 59°55' E 030°15'0 0.0
2017-Dec-29 04:00N 59°55' E 030°15'  
Track history (hours):
 
Tides and Currents Weather Stations Pressure Air Temp Water Temp Dewpoint Dewpoint Depression Visibility Wind Speed Wind Dir Waves Ship Positions

Alana

Last reported at 2018-Jan-08 03:57 UTC. Time now 2018-Jan-21 16:25 UTC.
Position N 63°29' E 007°29'.
Warning: this ship's position is 13 days out of date.

; draft 5.7 m.

Type: Tanker. MMSI: 273354700.

Date/timePositionNaut miles runAvg speedWind from/ knotsBaromVisibWave heightAir tempDewpointWater temp
2018-Jan-08 03:57N 63°29' E 007°29'3 5.8
2018-Jan-08 03:28N 63°26' E 007°29'3 6.2
2018-Jan-08 03:00N 63°23' E 007°30'3 5.8
2018-Jan-08 02:30N 63°20' E 007°30'2 5.0
2018-Jan-08 02:01N 63°18' E 007°32'2 4.3
2018-Jan-08 01:30N 63°16' E 007°34'2 4.1
2018-Jan-08 01:00N 63°15' E 007°38'2 4.6
2018-Jan-08 00:30N 63°14' E 007°42'2 4.9
2018-Jan-08 00:00N 63°12' E 007°45'4 7.0
2018-Jan-07 23:30N 63°09' E 007°42'4 7.4
2018-Jan-07 23:00N 63°05' E 007°41'4 7.4
2018-Jan-07 22:30N 63°01' E 007°42'2 4.4
2018-Jan-07 22:01N 63°01' E 007°47'0 0.0
2018-Jan-07 21:31N 63°01' E 007°47'0 0.1
2018-Jan-07 21:00N 63°01' E 007°47'0 0.0
2018-Jan-07 20:30N 63°01' E 007°47'0 0.0
2018-Jan-07 20:00N 63°01' E 007°47'0 0.0
2018-Jan-07 19:30N 63°01' E 007°47'0 0.0
2018-Jan-07 19:00N 63°01' E 007°47'0 0.0
2018-Jan-07 18:30N 63°01' E 007°47'0 0.0
2018-Jan-07 18:00N 63°01' E 007°47'0 0.0
2018-Jan-07 17:30N 63°01' E 007°47'0 0.1
2018-Jan-07 17:01N 63°01' E 007°47'0 0.0
2018-Jan-07 16:30N 63°01' E 007°47'0 0.0
2018-Jan-07 16:00N 63°01' E 007°47'0 0.1
2018-Jan-07 15:30N 63°01' E 007°47'0 0.0
2018-Jan-07 15:00N 63°01' E 007°47'0 0.0
2018-Jan-07 14:30N 63°01' E 007°47'0 0.1
2018-Jan-07 14:00N 63°01' E 007°47'0 0.1
2018-Jan-07 13:30N 63°01' E 007°47'0 0.1
2018-Jan-07 13:00N 63°01' E 007°47'0 0.0
2018-Jan-07 12:30N 63°01' E 007°47'0 0.0
2018-Jan-07 12:00N 63°01' E 007°47'0 0.0
2018-Jan-07 11:30N 63°01' E 007°47'0 0.0
2018-Jan-07 11:01N 63°01' E 007°47'0 0.0
2018-Jan-07 10:30N 63°01' E 007°47'0 0.1
2018-Jan-07 10:00N 63°01' E 007°47'0 0.2
2018-Jan-07 09:30N 63°01' E 007°47'2 3.3
2018-Jan-07 09:00N 63°01' E 007°50'3 6.5
2018-Jan-07 08:30N 63°04' E 007°55'4 7.3
2018-Jan-07 08:01N 63°07' E 007°54'4 7.6
2018-Jan-07 07:30N 63°10' E 007°47'2 4.3
2018-Jan-07 07:00N 63°12' E 007°46'3 5.7
2018-Jan-07 06:31N 63°14' E 007°42'3 5.2
2018-Jan-07 06:00N 63°16' E 007°37'2 3.7
2018-Jan-07 05:30N 63°17' E 007°34'2 3.4
2018-Jan-07 05:01N 63°18' E 007°31'2 3.4
2018-Jan-07 04:25N 63°19' E 007°28'2 4.5
2018-Jan-07 03:59N 63°21' E 007°25'  
2018-Jan-04 02:05N 58°57' E 004°52'210.1
2018-Jan-04 01:54N 58°55' E 004°54'410.2
2018-Jan-04 01:29N 58°52' E 004°57'510.0
2018-Jan-04 00:59N 58°47' E 005°02'5 9.7
2018-Jan-04 00:30N 58°43' E 005°07'5 9.7
2018-Jan-03 23:59N 58°39' E 005°12'5 9.9
2018-Jan-03 23:30N 58°35' E 005°17'610.4
2018-Jan-03 22:57N 58°30' E 005°23'810.6
2018-Jan-03 22:13N 58°23' E 005°31'311.0
2018-Jan-03 21:59N 58°21' E 005°33'2210.1
2018-Jan-03 19:46N 58°05' E 006°02'310.7
2018-Jan-03 19:29N 58°03' E 006°06'510.9
2018-Jan-03 18:59N 57°59' E 006°14'510.5
2018-Jan-03 18:29N 57°56' E 006°21'5 9.9
2018-Jan-03 18:00N 57°54' E 006°29'510.0
2018-Jan-03 17:30N 57°52' E 006°38'5 9.3
2018-Jan-03 16:59N 57°51' E 006°47'4 8.8
2018-Jan-03 16:30N 57°49' E 006°54'4 8.3
2018-Jan-03 16:00N 57°48' E 007°02'105 9.4
2018-Jan-03 04:53N 57°49' E 010°19'410.8
2018-Jan-03 04:30N 57°49' E 010°27'5 9.6
2018-Jan-03 03:59N 57°49' E 010°36'4 9.0
2018-Jan-03 03:30N 57°49' E 010°44'510.3
2018-Jan-03 03:00N 57°46' E 010°52'510.5
2018-Jan-03 02:30N 57°42' E 010°59'511.1
2018-Jan-03 02:00N 57°38' E 011°06'611.4
2018-Jan-03 01:31N 57°34' E 011°14'611.4
2018-Jan-03 01:01N 57°30' E 011°22'611.3
2018-Jan-03 00:30N 57°26' E 011°28'611.9
2018-Jan-03 00:00N 57°20' E 011°31'611.7
2018-Jan-02 23:30N 57°15' E 011°35'611.9
2018-Jan-02 23:00N 57°09' E 011°39'5910.9
2018-Jan-02 17:35N 56°14' E 012°16'110.4
2018-Jan-02 17:30N 56°13' E 012°18'510.6
2018-Jan-02 17:00N 56°10' E 012°25'610.9
2018-Jan-02 16:30N 56°07' E 012°33'611.6
2018-Jan-02 16:01N 56°03' E 012°40'510.9
2018-Jan-02 15:30N 55°58' E 012°43'510.4
2018-Jan-02 15:00N 55°52' E 012°44'510.8
2018-Jan-02 14:30N 55°47' E 012°42'510.9
2018-Jan-02 14:00N 55°42' E 012°41'510.9
2018-Jan-02 13:30N 55°36' E 012°42'510.9
2018-Jan-02 13:00N 55°31' E 012°43'510.9
2018-Jan-02 12:30N 55°25' E 012°42'510.8
2018-Jan-02 12:00N 55°20' E 012°41'5 9.6
2018-Jan-02 11:30N 55°17' E 012°48'5 9.7
2018-Jan-02 11:00N 55°16' E 012°56'510.1
2018-Jan-02 10:30N 55°16' E 013°05'510.1
2018-Jan-02 09:59N 55°15' E 013°14'2310.3
2018-Jan-02 07:44N 55°14' E 013°55'410.6
2018-Jan-02 07:24N 55°14' E 014°01'1010.0
2018-Jan-02 06:27N 55°15' E 014°18'510.4
2018-Jan-02 06:00N 55°19' E 014°23'510.4
2018-Jan-02 05:29N 55°23' E 014°29'23 9.7
2018-Jan-02 03:09N 55°35' E 015°02'9 9.7
2018-Jan-02 02:15N 55°40' E 015°16'2 9.6
2018-Jan-02 02:00N 55°41' E 015°19'5 9.6
2018-Jan-02 01:31N 55°43' E 015°27'5 9.1
2018-Jan-02 01:01N 55°46' E 015°34'4 8.5
2018-Jan-02 00:30N 55°48' E 015°40'4 8.0
2018-Jan-02 00:01N 55°50' E 015°46'4 7.3
2018-Jan-01 23:31N 55°52' E 015°52'3 6.3
2018-Jan-01 23:01N 55°53' E 015°57'3 5.7
2018-Jan-01 22:31N 55°55' E 016°01'2 4.8
2018-Jan-01 22:01N 55°56' E 016°05'2 4.5
2018-Jan-01 21:31N 55°57' E 016°08'2 4.6
2018-Jan-01 20:59N 55°58' E 016°12'2 4.3
2018-Jan-01 20:30N 55°59' E 016°15'2 4.3
2018-Jan-01 19:59N 56°00' E 016°18'2 3.7
2018-Jan-01 19:29N 56°01' E 016°21'2 3.4
2018-Jan-01 19:00N 56°02' E 016°24'2 3.6
2018-Jan-01 18:30N 56°03' E 016°27'2 4.0
2018-Jan-01 18:01N 56°04' E 016°30'2 3.6
2018-Jan-01 17:30N 56°05' E 016°32'308 8.8
2017-Dec-31 06:23N 59°39' E 023°29'410.0
2017-Dec-31 06:00N 59°40' E 023°36'1610.3
2017-Dec-31 04:24N 59°45' E 024°07'610.5
2017-Dec-31 03:52N 59°46' E 024°18'410.4
2017-Dec-31 03:30N 59°47' E 024°25'510.5
2017-Dec-31 03:00N 59°48' E 024°35'510.5
2017-Dec-31 02:30N 59°50' E 024°45'510.5
2017-Dec-31 02:00N 59°51' E 024°56'510.2
2017-Dec-31 01:30N 59°52' E 025°06'510.0
2017-Dec-31 01:00N 59°53' E 025°15'7 9.9
2017-Dec-31 00:18N 59°54' E 025°29'2210.0
2017-Dec-30 22:07N 59°59' E 026°12'110.0
2017-Dec-30 22:00N 59°59' E 026°14'510.1
2017-Dec-30 21:30N 60°00' E 026°24'510.0
2017-Dec-30 21:00N 60°01' E 026°34'510.0
2017-Dec-30 20:30N 60°01' E 026°43'510.2
2017-Dec-30 20:00N 60°00' E 026°53'510.0
2017-Dec-30 19:30N 59°60' E 027°03'5 9.8
2017-Dec-30 19:00N 60°02' E 027°12'5 9.8
2017-Dec-30 18:30N 60°05' E 027°20'510.1
2017-Dec-30 18:00N 60°07' E 027°29'5 9.8
2017-Dec-30 17:30N 60°10' E 027°37'5 9.8
2017-Dec-30 17:00N 60°12' E 027°46'5 9.8
2017-Dec-30 16:30N 60°11' E 027°56'510.0
2017-Dec-30 16:01N 60°10' E 028°06'510.2
2017-Dec-30 15:30N 60°08' E 028°15'510.3
2017-Dec-30 15:01N 60°05' E 028°24'510.4
2017-Dec-30 14:30N 60°03' E 028°33'510.2
2017-Dec-30 14:00N 60°03' E 028°43'510.3
2017-Dec-30 13:30N 60°03' E 028°54'510.4
2017-Dec-30 13:00N 60°02' E 029°04'2410.5
2017-Dec-30 10:42N 59°57' E 029°51'210.7
2017-Dec-30 10:29N 59°56' E 029°56'510.5
2017-Dec-30 10:00N 59°54' E 030°05'4 7.2
2017-Dec-30 09:30N 59°53' E 030°12'1 2.8
2017-Dec-30 09:00N 59°53' E 030°14'0 0.0
2017-Dec-30 08:30N 59°53' E 030°14'0 0.0
2017-Dec-30 08:00N 59°53' E 030°14'0 0.0
2017-Dec-30 07:30N 59°53' E 030°14'0 0.0
2017-Dec-30 07:00N 59°53' E 030°14'1 2.1
2017-Dec-30 06:30N 59°53' E 030°12'0 0.1
2017-Dec-30 06:01N 59°53' E 030°12'2 4.2
2017-Dec-30 05:30N 59°55' E 030°15'0 0.4
2017-Dec-30 05:00N 59°55' E 030°15'0 0.0
2017-Dec-30 04:30N 59°55' E 030°15'0 0.0
2017-Dec-30 04:00N 59°55' E 030°15'0 0.0
2017-Dec-30 03:30N 59°55' E 030°15'0 0.0
2017-Dec-30 03:00N 59°55' E 030°15'0 0.0
2017-Dec-30 02:29N 59°55' E 030°15'0 0.0
2017-Dec-30 02:00N 59°55' E 030°15'0 0.0
2017-Dec-30 01:30N 59°55' E 030°15'0 0.0
2017-Dec-30 01:01N 59°55' E 030°15'0 0.0
2017-Dec-30 00:30N 59°55' E 030°15'0 0.0
2017-Dec-30 00:00N 59°55' E 030°15'0 0.0
2017-Dec-29 23:30N 59°55' E 030°15'0 0.0
2017-Dec-29 22:59N 59°55' E 030°15'0 0.0
2017-Dec-29 22:30N 59°55' E 030°15'0 0.0
2017-Dec-29 22:00N 59°55' E 030°15'0 0.0
2017-Dec-29 21:30N 59°55' E 030°15'0 0.0
2017-Dec-29 21:00N 59°55' E 030°15'0 0.0
2017-Dec-29 20:30N 59°55' E 030°15'0 0.0
2017-Dec-29 19:59N 59°55' E 030°15'0 0.0
2017-Dec-29 19:30N 59°55' E 030°15'0 0.0
2017-Dec-29 19:00N 59°55' E 030°15'0 0.0
2017-Dec-29 18:30N 59°55' E 030°15'0 0.0
2017-Dec-29 18:00N 59°55' E 030°15'0 0.0
2017-Dec-29 17:30N 59°55' E 030°15'0 0.0
2017-Dec-29 17:00N 59°55' E 030°15'0 0.0
2017-Dec-29 16:30N 59°55' E 030°15'0 0.0
2017-Dec-29 16:00N 59°55' E 030°15'0 0.0
2017-Dec-29 15:31N 59°55' E 030°15'0 0.0
2017-Dec-29 15:00N 59°55' E 030°15'0 0.0
2017-Dec-29 14:30N 59°55' E 030°15'0 0.0
2017-Dec-29 14:00N 59°55' E 030°15'0 0.0
2017-Dec-29 13:31N 59°55' E 030°15'0 0.0
2017-Dec-29 13:00N 59°55' E 030°15'0 0.0
2017-Dec-29 12:30N 59°55' E 030°15'0 0.0
2017-Dec-29 12:00N 59°55' E 030°15'0 0.0
2017-Dec-29 11:30N 59°55' E 030°15'0 0.0
2017-Dec-29 11:01N 59°55' E 030°15'0 0.0
2017-Dec-29 10:30N 59°55' E 030°15'0 0.0
2017-Dec-29 10:00N 59°55' E 030°15'0 0.0
2017-Dec-29 09:30N 59°55' E 030°15'0 0.0
2017-Dec-29 09:00N 59°55' E 030°15'0 0.0
2017-Dec-29 08:29N 59°55' E 030°15'0 0.0
2017-Dec-29 08:00N 59°55' E 030°15'0 0.0
2017-Dec-29 07:30N 59°55' E 030°15'0 0.0
2017-Dec-29 07:00N 59°55' E 030°15'0 0.0
2017-Dec-29 06:30N 59°55' E 030°15'0 0.0
2017-Dec-29 06:00N 59°55' E 030°15'0 0.0
2017-Dec-29 05:30N 59°55' E 030°15'0 0.0
2017-Dec-29 05:00N 59°55' E 030°15'0 0.0
2017-Dec-29 04:30N 59°55' E 030°15'0 0.0
2017-Dec-29 04:00N 59°55' E 030°15'  

Dump ship's entire track history